Tukholma, Ruotsi

21. lokakuuta 2014 klo 02:28 (CEST) (GMT +0200)
Solna | Change Station
CLOSE
Current Station
Omat sääasemat
Location: Solna, Stockholm
Korkeus: 72 ft
Lähimmät sääasemat

Kork 72 ft 59.35 °N, 18.02 °E | Updated 27 seconds ago

Overcast
Täysin pilvistä
44.1 °F
Tuntuu kuin 44 °F
N
1.6
Tuuli Suunnaltaan vaihteleva Tuuli ilmansuunnasta Länsi
Gusts 4.5 mph

Tänään
Korkea -- | Matala -- °F
--% Sateen mahd.
Eilen
Korkea -- | Matala -- °F
Precip. -- tuumaa
7:39 AM 5:24 PM
Vähenevä sirppi, 8% visible
Ilmanpaine 29.65 tuumaa
Näkyvyys 6.2 mailia
Pilviä Täysin pilvistä 1600 ft
Tuulen hyytävyys 44 °F
Kastepiste 43 °F
Ilmankosteus 95%
Sademäärä 0.00 tuumaa
Lumensyvyys Ei saatavilla
UV 0 / 12
Pollen Ei saatavilla
Ilmanlaatu Ei saatavilla
Flu Activity Ei saatavilla
METAR ESSB 210020Z AUTO 34005KT 9999 OVC016/// 07/05 Q1004

More Conditions Fewer Conditions

Ilmanpaine 29.65 tuumaa
Näkyvyys 6.2 mailia
Pilviä Täysin pilvistä 1600 ft
Tuulen hyytävyys 44 °F
Kastepiste 43 °F
Ilmankosteus 95%
Sademäärä 0.00 tuumaa
Lumensyvyys Ei saatavilla
UV 0 / 12
Pollen Ei saatavilla
Ilmanlaatu Ei saatavilla
Flu Activity Ei saatavilla
METAR ESSB 210020Z AUTO 34005KT 9999 OVC016/// 07/05 Q1004

More Conditions Fewer Conditions

10-Day Weather Forecast

Almanac

Tähtitiede

Oct. 21, 2014 Nousuaika Laskuaika
Valoisa aika 07:39 (CEST) 17:24 (CEST)
Porvarillinen hämärä 06:57 (CEST) 18:06 (CEST)
Nauttinen hämärä 06:10 (CEST) 18:53 (CEST)
Astronominen hämärä 05:22 (CEST) 19:40 (CEST)
Kuu 04:32 (CEST) 16:36 (CEST)
Näkyvän valon pituus 11h 08m
Päivän pituus
9h 44m
Tomorrow will be 5m 9s shorter.
Vähenevä sirppi, 8% of the Moon is Illuminated
loka 20
Vähenevä sirppi
loka 23
Uusi
loka 30
Ensimmäinen neljännes
marras 6
Täysikuu
marras 14
Viimeinen neljännes

Eilisen päivän ennätykset

Country Highs Country Lows

Community

WunderPhotos

Upload Photos

1,763,552 photos uploaded!

Nearby

Lumensyvyys

Not available.

Maanjäristysaktiivisuus

Paikkakunta Distance Mag. Time & Date
No recent earthquake activity has been reported nearby.
Minimum magnitude displayed is 2.5.

Coastal Water Temperatures

Paikka Lämpötila
Ei ilmoittavia asemia

Lähimmät sääasemat